Nyk Deneb — 3EOF8 — position and weather

sailwx.info

Track history (hours):
 
Tides and Currents Weather Stations Pressure Air Temp Water Temp Dewpoint Dewpoint Depression Visibility Wind Speed Wind Dir Waves Ship Positions

Nyk Deneb

Last reported at 2016-Dec-10 16:33 UTC. Time now 2016-Dec-10 16:46 UTC.
Position N 48°06' W 122°39'.

Length 294 m; draft 11.3 m.

Type: Ship (hazmat cat B). MMSI: 355717000.

Date/timePositionNaut miles runAvg speedWind from/ knotsBaromVisibWave heightAir tempDewpointWater temp
2016-Dec-10 16:33N 48°06' W 122°39'1918.8
2016-Dec-10 15:33N 47°49' W 122°27'2019.9
2016-Dec-10 14:33N 47°29' W 122°25'1212.3
2016-Dec-10 13:33N 47°17' W 122°25'2 1.3
2016-Dec-10 12:17N 47°16' W 122°24'0 0.0
2016-Dec-10 11:23N 47°16' W 122°24'0 0.0
2016-Dec-10 10:23N 47°16' W 122°24'0 0.0
2016-Dec-10 09:29N 47°16' W 122°24'0 0.0
2016-Dec-10 08:29N 47°16' W 122°24'0 0.0
2016-Dec-10 07:29N 47°16' W 122°24'0 0.0
2016-Dec-09 18:29N 47°16' W 122°24'0 0.0
2016-Dec-09 13:14N 47°16' W 122°24'2 2.4
2016-Dec-09 12:33N 47°17' W 122°25'9 8.7
2016-Dec-09 11:33N 47°26' W 122°24'1818.4
2016-Dec-09 10:34N 47°44' W 122°27'1717.0
2016-Dec-09 09:33N 47°60' W 122°37'1716.1
2016-Dec-09 08:32N 48°11' W 122°54'1717.8
2016-Dec-09 07:33N 48°11' W 123°20'8 8.1
2016-Dec-09 06:33N 48°15' W 123°30'1212.2
2016-Dec-09 05:34N 48°23' W 123°16'1717.0
2016-Dec-09 04:33N 48°40' W 123°15'1313.4
2016-Dec-09 03:34N 48°52' W 123°06'1717.4
2016-Dec-09 02:34N 49°05' W 123°24'1616.1
2016-Dec-09 01:33N 49°19' W 123°11'4 3.8
2016-Dec-09 00:32N 49°17' W 123°06'0 0.0
2016-Dec-08 23:32N 49°17' W 123°06'0 0.0
2016-Dec-08 22:32N 49°17' W 123°06'0 0.0
2016-Dec-08 21:32N 49°17' W 123°06'0 0.0
2016-Dec-08 20:32N 49°17' W 123°06'0 0.0
2016-Dec-08 19:32N 49°17' W 123°06'0 0.0
2016-Dec-08 18:32N 49°17' W 123°06'0 0.0
2016-Dec-08 17:32N 49°17' W 123°06'0 0.0
2016-Dec-08 16:32N 49°17' W 123°06'0 0.0
2016-Dec-08 15:32N 49°17' W 123°06'0 0.0
2016-Dec-08 14:32N 49°17' W 123°06'0 0.0
2016-Dec-08 13:32N 49°17' W 123°06'0 0.0
2016-Dec-08 12:32N 49°17' W 123°06'0 0.0
2016-Dec-08 11:32N 49°17' W 123°06'0 0.0
2016-Dec-08 10:32N 49°17' W 123°06'0 0.0
2016-Dec-08 09:32N 49°17' W 123°06'0 0.0
2016-Dec-08 08:33N 49°17' W 123°06'1 0.8
2016-Dec-08 07:33N 49°18' W 123°06'5 4.9
2016-Dec-08 06:33N 49°19' W 123°14'6 6.5
2016-Dec-08 05:34N 49°13' W 123°19'1313.2
2016-Dec-08 04:33N 49°00' W 123°15'1515.1
2016-Dec-08 03:33N 48°49' W 122°60'1313.3
2016-Dec-08 02:33N 48°40' W 123°15'1615.9
2016-Dec-08 01:33N 48°24' W 123°13'1010.1
2016-Dec-08 00:33N 48°18' W 123°25'8 7.8
2016-Dec-07 23:33N 48°13' W 123°35'1312.8
2016-Dec-07 22:33N 48°14' W 123°54'1313.4
2016-Dec-07 21:33N 48°19' W 124°12'1413.7
2016-Dec-07 20:33N 48°25' W 124°31'1312.9
2016-Dec-07 19:33N 48°29' W 124°49'1313.0
2016-Dec-07 18:34N 48°28' W 125°09'1413.6
2016-Dec-07 17:33N 48°27' W 125°29'1413.7
2016-Dec-07 16:33N 48°25' W 125°50'1413.4
2016-Dec-07 15:32N 48°24' W 126°10'  
Track history (hours):
 
Tides and Currents Weather Stations Pressure Air Temp Water Temp Dewpoint Dewpoint Depression Visibility Wind Speed Wind Dir Waves Ship Positions

Nyk Deneb

Last reported at 2016-Dec-10 16:33 UTC. Time now 2016-Dec-10 16:46 UTC.
Position N 48°06' W 122°39'.

Length 294 m; draft 11.3 m.

Type: Ship (hazmat cat B). MMSI: 355717000.

Date/timePositionNaut miles runAvg speedWind from/ knotsBaromVisibWave heightAir tempDewpointWater temp
2016-Dec-10 16:33N 48°06' W 122°39'1918.8
2016-Dec-10 15:33N 47°49' W 122°27'2019.9
2016-Dec-10 14:33N 47°29' W 122°25'1212.3
2016-Dec-10 13:33N 47°17' W 122°25'2 1.3
2016-Dec-10 12:17N 47°16' W 122°24'0 0.0
2016-Dec-10 11:23N 47°16' W 122°24'0 0.0
2016-Dec-10 10:23N 47°16' W 122°24'0 0.0
2016-Dec-10 09:29N 47°16' W 122°24'0 0.0
2016-Dec-10 08:29N 47°16' W 122°24'0 0.0
2016-Dec-10 07:29N 47°16' W 122°24'0 0.0
2016-Dec-09 18:29N 47°16' W 122°24'0 0.0
2016-Dec-09 13:14N 47°16' W 122°24'2 2.4
2016-Dec-09 12:33N 47°17' W 122°25'9 8.7
2016-Dec-09 11:33N 47°26' W 122°24'1818.4
2016-Dec-09 10:34N 47°44' W 122°27'1717.0
2016-Dec-09 09:33N 47°60' W 122°37'1716.1
2016-Dec-09 08:32N 48°11' W 122°54'1717.8
2016-Dec-09 07:33N 48°11' W 123°20'8 8.1
2016-Dec-09 06:33N 48°15' W 123°30'1212.2
2016-Dec-09 05:34N 48°23' W 123°16'1717.0
2016-Dec-09 04:33N 48°40' W 123°15'1313.4
2016-Dec-09 03:34N 48°52' W 123°06'1717.4
2016-Dec-09 02:34N 49°05' W 123°24'1616.1
2016-Dec-09 01:33N 49°19' W 123°11'4 3.8
2016-Dec-09 00:32N 49°17' W 123°06'0 0.0
2016-Dec-08 23:32N 49°17' W 123°06'0 0.0
2016-Dec-08 22:32N 49°17' W 123°06'0 0.0
2016-Dec-08 21:32N 49°17' W 123°06'0 0.0
2016-Dec-08 20:32N 49°17' W 123°06'0 0.0
2016-Dec-08 19:32N 49°17' W 123°06'0 0.0
2016-Dec-08 18:32N 49°17' W 123°06'0 0.0
2016-Dec-08 17:32N 49°17' W 123°06'0 0.0
2016-Dec-08 16:32N 49°17' W 123°06'0 0.0
2016-Dec-08 15:32N 49°17' W 123°06'0 0.0
2016-Dec-08 14:32N 49°17' W 123°06'0 0.0
2016-Dec-08 13:32N 49°17' W 123°06'0 0.0
2016-Dec-08 12:32N 49°17' W 123°06'0 0.0
2016-Dec-08 11:32N 49°17' W 123°06'0 0.0
2016-Dec-08 10:32N 49°17' W 123°06'0 0.0
2016-Dec-08 09:32N 49°17' W 123°06'0 0.0
2016-Dec-08 08:33N 49°17' W 123°06'1 0.8
2016-Dec-08 07:33N 49°18' W 123°06'5 4.9
2016-Dec-08 06:33N 49°19' W 123°14'6 6.5
2016-Dec-08 05:34N 49°13' W 123°19'1313.2
2016-Dec-08 04:33N 49°00' W 123°15'1515.1
2016-Dec-08 03:33N 48°49' W 122°60'1313.3
2016-Dec-08 02:33N 48°40' W 123°15'1615.9
2016-Dec-08 01:33N 48°24' W 123°13'1010.1
2016-Dec-08 00:33N 48°18' W 123°25'8 7.8
2016-Dec-07 23:33N 48°13' W 123°35'1312.8
2016-Dec-07 22:33N 48°14' W 123°54'1313.4
2016-Dec-07 21:33N 48°19' W 124°12'1413.7
2016-Dec-07 20:33N 48°25' W 124°31'1312.9
2016-Dec-07 19:33N 48°29' W 124°49'1313.0
2016-Dec-07 18:34N 48°28' W 125°09'1413.6
2016-Dec-07 17:33N 48°27' W 125°29'1413.7
2016-Dec-07 16:33N 48°25' W 125°50'1413.4
2016-Dec-07 15:32N 48°24' W 126°10'  

Dump ship's entire track history